sensor_id;sensor_type;location;lat;lon;timestamp;P1;durP1;ratioP1;P2;durP2;ratioP2
6850;SDS011;3464;42.728;23.296;2023-12-20T00:00:06;244.97;;;135.90;;
6850;SDS011;3464;42.728;23.296;2023-12-20T00:02:33;224.07;;;129.93;;
6850;SDS011;3464;42.728;23.296;2023-12-20T00:04:59;219.97;;;130.00;;
6850;SDS011;3464;42.728;23.296;2023-12-20T00:07:26;209.80;;;117.30;;
6850;SDS011;3464;42.728;23.296;2023-12-20T00:09:52;188.13;;;113.53;;
6850;SDS011;3464;42.728;23.296;2023-12-20T00:12:19;208.53;;;121.33;;
6850;SDS011;3464;42.728;23.296;2023-12-20T00:14:49;200.20;;;119.47;;
6850;SDS011;3464;42.728;23.296;2023-12-20T00:17:15;209.17;;;115.70;;
6850;SDS011;3464;42.728;23.296;2023-12-20T00:19:42;198.50;;;113.43;;
6850;SDS011;3464;42.728;23.296;2023-12-20T00:22:08;198.63;;;115.00;;
6850;SDS011;3464;42.728;23.296;2023-12-20T00:24:35;200.10;;;117.30;;
6850;SDS011;3464;42.728;23.296;2023-12-20T00:27:01;190.40;;;109.10;;
6850;SDS011;3464;42.728;23.296;2023-12-20T00:29:28;216.37;;;123.80;;
6850;SDS011;3464;42.728;23.296;2023-12-20T00:31:55;192.23;;;111.97;;
6850;SDS011;3464;42.728;23.296;2023-12-20T00:34:21;191.07;;;108.07;;
6850;SDS011;3464;42.728;23.296;2023-12-20T00:36:48;187.07;;;109.10;;
6850;SDS011;3464;42.728;23.296;2023-12-20T00:39:14;188.40;;;107.00;;
6850;SDS011;3464;42.728;23.296;2023-12-20T00:41:41;185.37;;;107.40;;
6850;SDS011;3464;42.728;23.296;2023-12-20T00:44:07;184.93;;;98.77;;
6850;SDS011;3464;42.728;23.296;2023-12-20T00:46:34;168.97;;;90.50;;
6850;SDS011;3464;42.728;23.296;2023-12-20T00:49:00;157.30;;;72.53;;
6850;SDS011;3464;42.728;23.296;2023-12-20T00:51:27;161.33;;;74.90;;
6850;SDS011;3464;42.728;23.296;2023-12-20T00:53:53;160.13;;;64.43;;
6850;SDS011;3464;42.728;23.296;2023-12-20T00:56:20;139.53;;;57.70;;
6850;SDS011;3464;42.728;23.296;2023-12-20T00:58:46;122.13;;;57.20;;
6850;SDS011;3464;42.728;23.296;2023-12-20T01:01:13;176.53;;;66.17;;
6850;SDS011;3464;42.728;23.296;2023-12-20T01:03:39;187.00;;;72.13;;
6850;SDS011;3464;42.728;23.296;2023-12-20T01:06:06;180.87;;;73.83;;
6850;SDS011;3464;42.728;23.296;2023-12-20T01:08:32;196.37;;;74.80;;
6850;SDS011;3464;42.728;23.296;2023-12-20T01:10:59;163.30;;;72.77;;
6850;SDS011;3464;42.728;23.296;2023-12-20T01:13:25;142.80;;;65.53;;
6850;SDS011;3464;42.728;23.296;2023-12-20T01:15:53;146.70;;;64.90;;
6850;SDS011;3464;42.728;23.296;2023-12-20T01:18:20;132.60;;;61.53;;
6850;SDS011;3464;42.728;23.296;2023-12-20T01:38:33;165.43;;;72.00;;
6850;SDS011;3464;42.728;23.296;2023-12-20T01:41:00;155.73;;;74.60;;
6850;SDS011;3464;42.728;23.296;2023-12-20T01:43:26;162.83;;;71.57;;
6850;SDS011;3464;42.728;23.296;2023-12-20T01:45:53;185.97;;;72.47;;
6850;SDS011;3464;42.728;23.296;2023-12-20T01:48:19;195.90;;;73.90;;
6850;SDS011;3464;42.728;23.296;2023-12-20T01:50:46;153.43;;;66.37;;
6850;SDS011;3464;42.728;23.296;2023-12-20T01:53:12;182.77;;;71.40;;
6850;SDS011;3464;42.728;23.296;2023-12-20T01:55:39;160.60;;;67.83;;
6850;SDS011;3464;42.728;23.296;2023-12-20T01:58:06;243.20;;;93.43;;
6850;SDS011;3464;42.728;23.296;2023-12-20T02:00:32;152.20;;;70.60;;
6850;SDS011;3464;42.728;23.296;2023-12-20T02:03:01;144.10;;;64.17;;
6850;SDS011;3464;42.728;23.296;2023-12-20T02:05:29;135.07;;;63.77;;
6850;SDS011;3464;42.728;23.296;2023-12-20T02:07:56;165.43;;;66.23;;
6850;SDS011;3464;42.728;23.296;2023-12-20T02:10:23;135.27;;;63.47;;
6850;SDS011;3464;42.728;23.296;2023-12-20T02:12:49;124.60;;;58.23;;
6850;SDS011;3464;42.728;23.296;2023-12-20T02:15:15;122.53;;;49.30;;
6850;SDS011;3464;42.728;23.296;2023-12-20T02:17:43;111.00;;;51.97;;
6850;SDS011;3464;42.728;23.296;2023-12-20T02:20:10;155.43;;;57.60;;
6850;SDS011;3464;42.728;23.296;2023-12-20T02:22:36;113.50;;;52.67;;
6850;SDS011;3464;42.728;23.296;2023-12-20T02:25:03;122.97;;;54.90;;
6850;SDS011;3464;42.728;23.296;2023-12-20T02:27:30;123.93;;;54.20;;
6850;SDS011;3464;42.728;23.296;2023-12-20T02:29:56;112.70;;;51.93;;
6850;SDS011;3464;42.728;23.296;2023-12-20T02:32:24;116.90;;;47.67;;
6850;SDS011;3464;42.728;23.296;2023-12-20T02:34:52;94.07;;;43.47;;
6850;SDS011;3464;42.728;23.296;2023-12-20T02:37:18;74.40;;;39.77;;
6850;SDS011;3464;42.728;23.296;2023-12-20T02:39:45;92.00;;;40.87;;
6850;SDS011;3464;42.728;23.296;2023-12-20T02:42:12;88.97;;;43.40;;
6850;SDS011;3464;42.728;23.296;2023-12-20T02:44:39;103.63;;;44.00;;
6850;SDS011;3464;42.728;23.296;2023-12-20T02:47:05;108.20;;;47.33;;
6850;SDS011;3464;42.728;23.296;2023-12-20T02:49:32;93.27;;;43.93;;
6850;SDS011;3464;42.728;23.296;2023-12-20T02:51:59;89.03;;;42.53;;
6850;SDS011;3464;42.728;23.296;2023-12-20T02:54:25;97.87;;;44.83;;
6850;SDS011;3464;42.728;23.296;2023-12-20T02:56:52;101.50;;;43.93;;
6850;SDS011;3464;42.728;23.296;2023-12-20T02:59:18;101.57;;;42.90;;
6850;SDS011;3464;42.728;23.296;2023-12-20T03:01:45;90.60;;;42.00;;
6850;SDS011;3464;42.728;23.296;2023-12-20T03:04:11;104.30;;;42.93;;
6850;SDS011;3464;42.728;23.296;2023-12-20T03:06:38;95.97;;;44.67;;
6850;SDS011;3464;42.728;23.296;2023-12-20T03:09:05;110.00;;;46.20;;
6850;SDS011;3464;42.728;23.296;2023-12-20T03:11:31;117.47;;;48.57;;
6850;SDS011;3464;42.728;23.296;2023-12-20T03:13:58;125.73;;;50.67;;
6850;SDS011;3464;42.728;23.296;2023-12-20T03:16:24;94.83;;;44.93;;
6850;SDS011;3464;42.728;23.296;2023-12-20T03:18:54;116.00;;;46.60;;
6850;SDS011;3464;42.728;23.296;2023-12-20T03:21:21;126.87;;;45.97;;
6850;SDS011;3464;42.728;23.296;2023-12-20T03:23:47;169.20;;;49.60;;
6850;SDS011;3464;42.728;23.296;2023-12-20T03:26:14;93.90;;;44.40;;
6850;SDS011;3464;42.728;23.296;2023-12-20T03:28:40;113.90;;;46.27;;
6850;SDS011;3464;42.728;23.296;2023-12-20T03:31:07;137.80;;;46.77;;
6850;SDS011;3464;42.728;23.296;2023-12-20T03:33:34;101.80;;;44.60;;
6850;SDS011;3464;42.728;23.296;2023-12-20T03:36:00;129.03;;;46.03;;
6850;SDS011;3464;42.728;23.296;2023-12-20T03:38:27;140.37;;;50.90;;
6850;SDS011;3464;42.728;23.296;2023-12-20T03:40:53;150.60;;;51.53;;
6850;SDS011;3464;42.728;23.296;2023-12-20T03:43:20;132.60;;;51.97;;
6850;SDS011;3464;42.728;23.296;2023-12-20T03:45:46;126.40;;;51.00;;
6850;SDS011;3464;42.728;23.296;2023-12-20T03:48:13;142.43;;;52.33;;
6850;SDS011;3464;42.728;23.296;2023-12-20T03:50:40;154.10;;;52.67;;
6850;SDS011;3464;42.728;23.296;2023-12-20T03:53:07;158.57;;;52.77;;
6850;SDS011;3464;42.728;23.296;2023-12-20T03:55:33;132.93;;;51.77;;
6850;SDS011;3464;42.728;23.296;2023-12-20T03:58:00;197.97;;;54.33;;
6850;SDS011;3464;42.728;23.296;2023-12-20T04:00:26;136.27;;;55.03;;
6850;SDS011;3464;42.728;23.296;2023-12-20T04:02:53;143.87;;;50.87;;
6850;SDS011;3464;42.728;23.296;2023-12-20T04:05:19;160.53;;;49.73;;
6850;SDS011;3464;42.728;23.296;2023-12-20T04:07:46;118.87;;;46.97;;
6850;SDS011;3464;42.728;23.296;2023-12-20T04:10:12;156.30;;;66.07;;
6850;SDS011;3464;42.728;23.296;2023-12-20T04:12:39;160.93;;;67.47;;
6850;SDS011;3464;42.728;23.296;2023-12-20T04:15:05;136.40;;;58.10;;
6850;SDS011;3464;42.728;23.296;2023-12-20T04:17:32;190.53;;;70.83;;
6850;SDS011;3464;42.728;23.296;2023-12-20T04:20:00;164.67;;;71.13;;
6850;SDS011;3464;42.728;23.296;2023-12-20T04:22:27;166.30;;;68.97;;
6850;SDS011;3464;42.728;23.296;2023-12-20T04:24:53;174.57;;;70.13;;
6850;SDS011;3464;42.728;23.296;2023-12-20T04:27:20;159.30;;;63.83;;
6850;SDS011;3464;42.728;23.296;2023-12-20T04:29:47;137.10;;;56.57;;
6850;SDS011;3464;42.728;23.296;2023-12-20T04:32:13;147.93;;;57.57;;
6850;SDS011;3464;42.728;23.296;2023-12-20T04:34:40;164.23;;;57.20;;
6850;SDS011;3464;42.728;23.296;2023-12-20T04:37:07;192.10;;;56.90;;
6850;SDS011;3464;42.728;23.296;2023-12-20T04:39:33;120.30;;;52.53;;
6850;SDS011;3464;42.728;23.296;2023-12-20T04:42:00;133.07;;;54.23;;
6850;SDS011;3464;42.728;23.296;2023-12-20T04:44:26;133.53;;;51.97;;
6850;SDS011;3464;42.728;23.296;2023-12-20T04:46:53;115.10;;;51.63;;
6850;SDS011;3464;42.728;23.296;2023-12-20T04:49:19;118.57;;;50.63;;
6850;SDS011;3464;42.728;23.296;2023-12-20T04:51:46;112.93;;;47.10;;
6850;SDS011;3464;42.728;23.296;2023-12-20T04:54:12;166.73;;;50.93;;
6850;SDS011;3464;42.728;23.296;2023-12-20T04:56:39;137.80;;;53.13;;
6850;SDS011;3464;42.728;23.296;2023-12-20T04:59:07;134.57;;;50.97;;
6850;SDS011;3464;42.728;23.296;2023-12-20T05:01:33;200.17;;;55.03;;
6850;SDS011;3464;42.728;23.296;2023-12-20T05:04:00;128.23;;;49.43;;
6850;SDS011;3464;42.728;23.296;2023-12-20T05:06:26;179.40;;;52.50;;
6850;SDS011;3464;42.728;23.296;2023-12-20T05:08:53;135.00;;;49.40;;
6850;SDS011;3464;42.728;23.296;2023-12-20T05:11:19;151.43;;;57.40;;
6850;SDS011;3464;42.728;23.296;2023-12-20T05:13:46;137.33;;;48.20;;
6850;SDS011;3464;42.728;23.296;2023-12-20T05:16:12;137.93;;;47.40;;
6850;SDS011;3464;42.728;23.296;2023-12-20T05:18:39;146.23;;;49.60;;
6850;SDS011;3464;42.728;23.296;2023-12-20T05:21:06;152.13;;;50.80;;
6850;SDS011;3464;42.728;23.296;2023-12-20T05:23:33;179.30;;;51.27;;
6850;SDS011;3464;42.728;23.296;2023-12-20T05:26:00;103.53;;;44.50;;
6850;SDS011;3464;42.728;23.296;2023-12-20T05:28:26;92.37;;;41.30;;
6850;SDS011;3464;42.728;23.296;2023-12-20T05:30:53;120.07;;;43.90;;
6850;SDS011;3464;42.728;23.296;2023-12-20T05:33:19;103.90;;;41.10;;
6850;SDS011;3464;42.728;23.296;2023-12-20T05:35:46;122.93;;;42.37;;
6850;SDS011;3464;42.728;23.296;2023-12-20T05:38:12;116.50;;;44.67;;
6850;SDS011;3464;42.728;23.296;2023-12-20T05:40:39;135.47;;;44.03;;
6850;SDS011;3464;42.728;23.296;2023-12-20T05:43:05;95.67;;;42.50;;
6850;SDS011;3464;42.728;23.296;2023-12-20T05:45:32;97.17;;;42.07;;
6850;SDS011;3464;42.728;23.296;2023-12-20T05:47:58;122.27;;;40.70;;
6850;SDS011;3464;42.728;23.296;2023-12-20T05:50:25;74.23;;;36.40;;
6850;SDS011;3464;42.728;23.296;2023-12-20T05:52:51;76.47;;;35.07;;
6850;SDS011;3464;42.728;23.296;2023-12-20T05:55:18;103.67;;;35.03;;
6850;SDS011;3464;42.728;23.296;2023-12-20T05:57:44;84.87;;;34.80;;
6850;SDS011;3464;42.728;23.296;2023-12-20T06:00:11;81.17;;;34.07;;
6850;SDS011;3464;42.728;23.296;2023-12-20T06:02:38;105.43;;;35.00;;
6850;SDS011;3464;42.728;23.296;2023-12-20T06:05:05;83.10;;;33.90;;
6850;SDS011;3464;42.728;23.296;2023-12-20T06:07:32;82.53;;;33.87;;
6850;SDS011;3464;42.728;23.296;2023-12-20T06:09:58;106.50;;;33.37;;
6850;SDS011;3464;42.728;23.296;2023-12-20T06:12:25;80.37;;;34.87;;
6850;SDS011;3464;42.728;23.296;2023-12-20T06:14:52;78.23;;;37.10;;
6850;SDS011;3464;42.728;23.296;2023-12-20T06:17:18;120.90;;;38.80;;
6850;SDS011;3464;42.728;23.296;2023-12-20T06:19:45;86.07;;;37.63;;
6850;SDS011;3464;42.728;23.296;2023-12-20T06:22:12;85.43;;;35.40;;
6850;SDS011;3464;42.728;23.296;2023-12-20T06:24:38;85.33;;;35.90;;
6850;SDS011;3464;42.728;23.296;2023-12-20T06:27:05;71.57;;;34.47;;
6850;SDS011;3464;42.728;23.296;2023-12-20T06:29:31;84.13;;;36.87;;
6850;SDS011;3464;42.728;23.296;2023-12-20T06:31:58;77.30;;;34.00;;
6850;SDS011;3464;42.728;23.296;2023-12-20T06:34:26;82.20;;;36.03;;
6850;SDS011;3464;42.728;23.296;2023-12-20T06:36:53;80.50;;;36.23;;
6850;SDS011;3464;42.728;23.296;2023-12-20T06:39:20;120.93;;;39.90;;
6850;SDS011;3464;42.728;23.296;2023-12-20T06:41:48;99.03;;;42.43;;
6850;SDS011;3464;42.728;23.296;2023-12-20T06:44:14;109.83;;;43.97;;
6850;SDS011;3464;42.728;23.296;2023-12-20T06:46:41;95.73;;;41.40;;
6850;SDS011;3464;42.728;23.296;2023-12-20T06:49:07;105.03;;;43.67;;
6850;SDS011;3464;42.728;23.296;2023-12-20T06:51:35;108.23;;;46.77;;
6850;SDS011;3464;42.728;23.296;2023-12-20T06:54:01;114.90;;;49.43;;
6850;SDS011;3464;42.728;23.296;2023-12-20T06:56:29;115.83;;;47.00;;
6850;SDS011;3464;42.728;23.296;2023-12-20T06:58:55;112.47;;;48.57;;
6850;SDS011;3464;42.728;23.296;2023-12-20T07:01:22;113.53;;;53.07;;
6850;SDS011;3464;42.728;23.296;2023-12-20T07:03:48;116.17;;;50.67;;
6850;SDS011;3464;42.728;23.296;2023-12-20T07:06:15;116.47;;;50.27;;
6850;SDS011;3464;42.728;23.296;2023-12-20T07:08:41;134.83;;;52.97;;
6850;SDS011;3464;42.728;23.296;2023-12-20T07:11:08;118.20;;;51.90;;
6850;SDS011;3464;42.728;23.296;2023-12-20T07:13:34;120.90;;;54.70;;
6850;SDS011;3464;42.728;23.296;2023-12-20T07:16:01;121.43;;;54.80;;
6850;SDS011;3464;42.728;23.296;2023-12-20T07:18:28;132.97;;;57.60;;
6850;SDS011;3464;42.728;23.296;2023-12-20T07:20:54;127.73;;;55.63;;
6850;SDS011;3464;42.728;23.296;2023-12-20T07:23:21;136.00;;;56.97;;
6850;SDS011;3464;42.728;23.296;2023-12-20T07:25:49;124.20;;;52.43;;
6850;SDS011;3464;42.728;23.296;2023-12-20T07:28:15;125.20;;;53.30;;
6850;SDS011;3464;42.728;23.296;2023-12-20T07:30:42;123.03;;;54.40;;
6850;SDS011;3464;42.728;23.296;2023-12-20T07:33:08;128.23;;;53.60;;
6850;SDS011;3464;42.728;23.296;2023-12-20T07:35:35;123.80;;;54.47;;
6850;SDS011;3464;42.728;23.296;2023-12-20T07:38:01;116.10;;;51.87;;
6850;SDS011;3464;42.728;23.296;2023-12-20T07:40:28;143.20;;;54.03;;
6850;SDS011;3464;42.728;23.296;2023-12-20T07:42:54;139.17;;;56.80;;
6850;SDS011;3464;42.728;23.296;2023-12-20T07:45:21;139.50;;;55.10;;
6850;SDS011;3464;42.728;23.296;2023-12-20T07:47:47;128.20;;;52.07;;
6850;SDS011;3464;42.728;23.296;2023-12-20T07:50:14;112.80;;;50.80;;
6850;SDS011;3464;42.728;23.296;2023-12-20T07:52:40;132.83;;;52.83;;
6850;SDS011;3464;42.728;23.296;2023-12-20T07:55:07;113.73;;;50.70;;
6850;SDS011;3464;42.728;23.296;2023-12-20T07:57:34;114.10;;;51.50;;
6850;SDS011;3464;42.728;23.296;2023-12-20T08:00:00;117.23;;;52.90;;
6850;SDS011;3464;42.728;23.296;2023-12-20T08:02:27;119.23;;;50.17;;
6850;SDS011;3464;42.728;23.296;2023-12-20T08:04:53;113.93;;;51.47;;
6850;SDS011;3464;42.728;23.296;2023-12-20T08:07:20;126.90;;;53.27;;
6850;SDS011;3464;42.728;23.296;2023-12-20T08:09:46;133.67;;;52.23;;
6850;SDS011;3464;42.728;23.296;2023-12-20T08:12:13;127.90;;;51.07;;
6850;SDS011;3464;42.728;23.296;2023-12-20T08:14:39;127.33;;;52.63;;
6850;SDS011;3464;42.728;23.296;2023-12-20T08:17:06;130.10;;;55.43;;
6850;SDS011;3464;42.728;23.296;2023-12-20T08:19:32;132.13;;;55.30;;
6850;SDS011;3464;42.728;23.296;2023-12-20T08:21:59;128.70;;;54.30;;
6850;SDS011;3464;42.728;23.296;2023-12-20T08:24:27;122.87;;;56.03;;
6850;SDS011;3464;42.728;23.296;2023-12-20T08:26:54;125.00;;;54.63;;
6850;SDS011;3464;42.728;23.296;2023-12-20T08:29:20;123.73;;;53.83;;
6850;SDS011;3464;42.728;23.296;2023-12-20T08:31:51;111.63;;;51.50;;
6850;SDS011;3464;42.728;23.296;2023-12-20T08:34:13;116.33;;;51.50;;
6850;SDS011;3464;42.728;23.296;2023-12-20T08:36:40;114.03;;;51.97;;
6850;SDS011;3464;42.728;23.296;2023-12-20T08:39:06;118.87;;;53.50;;
6850;SDS011;3464;42.728;23.296;2023-12-20T08:41:34;122.63;;;54.53;;
6850;SDS011;3464;42.728;23.296;2023-12-20T08:44:00;128.80;;;55.07;;
6850;SDS011;3464;42.728;23.296;2023-12-20T08:46:26;132.10;;;55.90;;
6850;SDS011;3464;42.728;23.296;2023-12-20T08:48:53;138.50;;;55.10;;
6850;SDS011;3464;42.728;23.296;2023-12-20T08:51:19;136.73;;;56.90;;
6850;SDS011;3464;42.728;23.296;2023-12-20T08:53:46;140.33;;;57.97;;
6850;SDS011;3464;42.728;23.296;2023-12-20T08:56:12;135.07;;;56.60;;
6850;SDS011;3464;42.728;23.296;2023-12-20T08:58:39;132.23;;;56.63;;
6850;SDS011;3464;42.728;23.296;2023-12-20T09:01:05;129.07;;;57.50;;
6850;SDS011;3464;42.728;23.296;2023-12-20T09:03:32;130.43;;;56.80;;
6850;SDS011;3464;42.728;23.296;2023-12-20T09:05:59;143.67;;;58.20;;
6850;SDS011;3464;42.728;23.296;2023-12-20T09:08:25;150.43;;;60.30;;
6850;SDS011;3464;42.728;23.296;2023-12-20T09:10:52;147.87;;;60.10;;
6850;SDS011;3464;42.728;23.296;2023-12-20T09:13:18;147.57;;;60.90;;
6850;SDS011;3464;42.728;23.296;2023-12-20T09:15:45;150.83;;;64.80;;
6850;SDS011;3464;42.728;23.296;2023-12-20T09:18:11;147.67;;;60.50;;
6850;SDS011;3464;42.728;23.296;2023-12-20T09:20:38;150.60;;;59.37;;
6850;SDS011;3464;42.728;23.296;2023-12-20T09:23:05;151.43;;;63.70;;
6850;SDS011;3464;42.728;23.296;2023-12-20T09:25:35;151.73;;;63.90;;
6850;SDS011;3464;42.728;23.296;2023-12-20T09:28:02;156.17;;;62.53;;
6850;SDS011;3464;42.728;23.296;2023-12-20T09:30:28;158.60;;;66.63;;
6850;SDS011;3464;42.728;23.296;2023-12-20T09:32:55;158.50;;;65.60;;
6850;SDS011;3464;42.728;23.296;2023-12-20T09:35:21;159.33;;;65.20;;
6850;SDS011;3464;42.728;23.296;2023-12-20T09:37:48;166.43;;;66.80;;
6850;SDS011;3464;42.728;23.296;2023-12-20T09:40:17;160.53;;;66.87;;
6850;SDS011;3464;42.728;23.296;2023-12-20T09:42:50;151.13;;;63.73;;
6850;SDS011;3464;42.728;23.296;2023-12-20T09:45:15;142.43;;;58.70;;
6850;SDS011;3464;42.728;23.296;2023-12-20T09:47:43;159.30;;;63.47;;
6850;SDS011;3464;42.728;23.296;2023-12-20T09:50:08;152.57;;;62.67;;
6850;SDS011;3464;42.728;23.296;2023-12-20T09:52:36;153.70;;;63.67;;
6850;SDS011;3464;42.728;23.296;2023-12-20T09:55:03;157.57;;;62.30;;
6850;SDS011;3464;42.728;23.296;2023-12-20T09:57:28;154.83;;;65.13;;
6850;SDS011;3464;42.728;23.296;2023-12-20T09:59:55;145.27;;;61.00;;
6850;SDS011;3464;42.728;23.296;2023-12-20T10:02:21;162.33;;;67.77;;
6850;SDS011;3464;42.728;23.296;2023-12-20T10:04:48;155.63;;;62.87;;
6850;SDS011;3464;42.728;23.296;2023-12-20T10:07:15;155.57;;;64.00;;
6850;SDS011;3464;42.728;23.296;2023-12-20T10:09:41;160.93;;;64.70;;
6850;SDS011;3464;42.728;23.296;2023-12-20T10:12:08;157.80;;;63.33;;
6850;SDS011;3464;42.728;23.296;2023-12-20T10:14:34;137.70;;;60.83;;
6850;SDS011;3464;42.728;23.296;2023-12-20T10:17:02;158.83;;;65.80;;
6850;SDS011;3464;42.728;23.296;2023-12-20T10:19:28;158.03;;;61.90;;
6850;SDS011;3464;42.728;23.296;2023-12-20T10:21:55;157.87;;;57.53;;
6850;SDS011;3464;42.728;23.296;2023-12-20T10:24:21;154.43;;;63.77;;
6850;SDS011;3464;42.728;23.296;2023-12-20T10:26:49;148.47;;;56.30;;
6850;SDS011;3464;42.728;23.296;2023-12-20T10:29:16;152.20;;;61.13;;
6850;SDS011;3464;42.728;23.296;2023-12-20T10:31:42;157.63;;;65.77;;
6850;SDS011;3464;42.728;23.296;2023-12-20T10:34:09;163.40;;;63.80;;
6850;SDS011;3464;42.728;23.296;2023-12-20T10:36:36;161.40;;;65.87;;
6850;SDS011;3464;42.728;23.296;2023-12-20T10:39:02;157.33;;;65.17;;
6850;SDS011;3464;42.728;23.296;2023-12-20T10:41:30;146.37;;;64.77;;
6850;SDS011;3464;42.728;23.296;2023-12-20T10:43:59;155.33;;;66.00;;
6850;SDS011;3464;42.728;23.296;2023-12-20T10:46:26;163.03;;;68.80;;
6850;SDS011;3464;42.728;23.296;2023-12-20T10:48:53;156.00;;;64.77;;
6850;SDS011;3464;42.728;23.296;2023-12-20T10:51:19;150.53;;;66.00;;
6850;SDS011;3464;42.728;23.296;2023-12-20T10:53:47;153.80;;;65.50;;
6850;SDS011;3464;42.728;23.296;2023-12-20T10:56:15;149.63;;;65.33;;
6850;SDS011;3464;42.728;23.296;2023-12-20T10:58:40;156.10;;;65.93;;
6850;SDS011;3464;42.728;23.296;2023-12-20T11:01:06;161.90;;;66.90;;
6850;SDS011;3464;42.728;23.296;2023-12-20T11:03:34;154.37;;;65.70;;
6850;SDS011;3464;42.728;23.296;2023-12-20T11:06:01;159.53;;;65.83;;
6850;SDS011;3464;42.728;23.296;2023-12-20T11:08:30;148.63;;;66.00;;
6850;SDS011;3464;42.728;23.296;2023-12-20T11:11:02;147.80;;;67.57;;
6850;SDS011;3464;42.728;23.296;2023-12-20T11:13:28;151.70;;;66.90;;
6850;SDS011;3464;42.728;23.296;2023-12-20T11:15:53;155.40;;;68.87;;
6850;SDS011;3464;42.728;23.296;2023-12-20T11:18:20;158.20;;;71.83;;
6850;SDS011;3464;42.728;23.296;2023-12-20T11:20:46;160.03;;;71.67;;
6850;SDS011;3464;42.728;23.296;2023-12-20T11:23:13;152.93;;;70.97;;
6850;SDS011;3464;42.728;23.296;2023-12-20T11:25:47;151.93;;;74.27;;
6850;SDS011;3464;42.728;23.296;2023-12-20T11:28:16;193.43;;;90.50;;
6850;SDS011;3464;42.728;23.296;2023-12-20T11:30:48;207.37;;;97.13;;
6850;SDS011;3464;42.728;23.296;2023-12-20T11:33:14;205.30;;;101.20;;
6850;SDS011;3464;42.728;23.296;2023-12-20T11:35:40;228.13;;;105.63;;
6850;SDS011;3464;42.728;23.296;2023-12-20T11:38:07;243.73;;;116.10;;
6850;SDS011;3464;42.728;23.296;2023-12-20T11:40:34;255.73;;;122.00;;
6850;SDS011;3464;42.728;23.296;2023-12-20T11:43:01;267.93;;;127.57;;
6850;SDS011;3464;42.728;23.296;2023-12-20T11:45:27;283.87;;;129.80;;
6850;SDS011;3464;42.728;23.296;2023-12-20T11:47:54;273.83;;;129.77;;
6850;SDS011;3464;42.728;23.296;2023-12-20T11:50:21;275.97;;;124.97;;
6850;SDS011;3464;42.728;23.296;2023-12-20T11:52:47;256.87;;;122.77;;
6850;SDS011;3464;42.728;23.296;2023-12-20T11:55:14;262.97;;;125.13;;
6850;SDS011;3464;42.728;23.296;2023-12-20T11:57:41;255.57;;;120.33;;
6850;SDS011;3464;42.728;23.296;2023-12-20T12:00:07;256.47;;;117.83;;
6850;SDS011;3464;42.728;23.296;2023-12-20T12:02:34;250.57;;;116.27;;
6850;SDS011;3464;42.728;23.296;2023-12-20T12:05:00;269.00;;;116.87;;
6850;SDS011;3464;42.728;23.296;2023-12-20T12:07:27;246.60;;;111.10;;
6850;SDS011;3464;42.728;23.296;2023-12-20T12:09:53;262.90;;;113.07;;
6850;SDS011;3464;42.728;23.296;2023-12-20T12:12:20;249.23;;;108.03;;
6850;SDS011;3464;42.728;23.296;2023-12-20T12:14:48;254.10;;;109.83;;
6850;SDS011;3464;42.728;23.296;2023-12-20T12:17:13;255.77;;;108.10;;
6850;SDS011;3464;42.728;23.296;2023-12-20T12:19:41;240.23;;;101.43;;
6850;SDS011;3464;42.728;23.296;2023-12-20T12:22:07;240.70;;;103.83;;
6850;SDS011;3464;42.728;23.296;2023-12-20T12:24:34;213.83;;;95.73;;
6850;SDS011;3464;42.728;23.296;2023-12-20T12:27:00;220.47;;;98.43;;
6850;SDS011;3464;42.728;23.296;2023-12-20T12:29:28;203.03;;;90.30;;
6850;SDS011;3464;42.728;23.296;2023-12-20T12:31:54;200.50;;;88.53;;
6850;SDS011;3464;42.728;23.296;2023-12-20T12:34:21;195.17;;;84.60;;
6850;SDS011;3464;42.728;23.296;2023-12-20T12:36:48;193.63;;;82.90;;
6850;SDS011;3464;42.728;23.296;2023-12-20T12:39:15;194.07;;;83.10;;
6850;SDS011;3464;42.728;23.296;2023-12-20T12:41:42;185.90;;;79.33;;
6850;SDS011;3464;42.728;23.296;2023-12-20T12:44:08;176.33;;;81.30;;
6850;SDS011;3464;42.728;23.296;2023-12-20T12:46:35;178.40;;;77.10;;
6850;SDS011;3464;42.728;23.296;2023-12-20T12:49:01;180.40;;;76.50;;
6850;SDS011;3464;42.728;23.296;2023-12-20T12:51:28;162.80;;;73.00;;
6850;SDS011;3464;42.728;23.296;2023-12-20T12:53:56;164.20;;;74.23;;
6850;SDS011;3464;42.728;23.296;2023-12-20T12:56:23;167.60;;;73.30;;
6850;SDS011;3464;42.728;23.296;2023-12-20T12:58:49;184.07;;;75.37;;
6850;SDS011;3464;42.728;23.296;2023-12-20T13:01:16;180.90;;;76.43;;
6850;SDS011;3464;42.728;23.296;2023-12-20T13:03:45;173.60;;;73.60;;
6850;SDS011;3464;42.728;23.296;2023-12-20T13:06:12;172.07;;;74.13;;
6850;SDS011;3464;42.728;23.296;2023-12-20T13:08:39;188.27;;;78.47;;
6850;SDS011;3464;42.728;23.296;2023-12-20T13:11:05;179.77;;;76.00;;
6850;SDS011;3464;42.728;23.296;2023-12-20T13:13:32;188.17;;;77.03;;
6850;SDS011;3464;42.728;23.296;2023-12-20T13:15:58;172.23;;;73.57;;
6850;SDS011;3464;42.728;23.296;2023-12-20T13:18:25;195.93;;;78.77;;
6850;SDS011;3464;42.728;23.296;2023-12-20T13:20:52;191.03;;;77.40;;
6850;SDS011;3464;42.728;23.296;2023-12-20T13:23:18;210.57;;;77.80;;
6850;SDS011;3464;42.728;23.296;2023-12-20T13:25:45;193.53;;;78.40;;
6850;SDS011;3464;42.728;23.296;2023-12-20T13:28:12;185.33;;;77.27;;
6850;SDS011;3464;42.728;23.296;2023-12-20T13:30:40;201.43;;;78.63;;
6850;SDS011;3464;42.728;23.296;2023-12-20T13:33:07;247.80;;;79.20;;
6850;SDS011;3464;42.728;23.296;2023-12-20T13:35:33;216.80;;;82.70;;
6850;SDS011;3464;42.728;23.296;2023-12-20T13:38:00;225.20;;;78.67;;
6850;SDS011;3464;42.728;23.296;2023-12-20T13:40:27;197.37;;;78.00;;
6850;SDS011;3464;42.728;23.296;2023-12-20T13:42:53;229.03;;;77.77;;
6850;SDS011;3464;42.728;23.296;2023-12-20T13:45:20;181.57;;;77.97;;
6850;SDS011;3464;42.728;23.296;2023-12-20T13:47:46;201.77;;;78.40;;
6850;SDS011;3464;42.728;23.296;2023-12-20T13:50:13;201.10;;;79.53;;
6850;SDS011;3464;42.728;23.296;2023-12-20T13:52:39;177.47;;;74.73;;
6850;SDS011;3464;42.728;23.296;2023-12-20T13:55:06;212.90;;;78.23;;
6850;SDS011;3464;42.728;23.296;2023-12-20T13:57:33;165.80;;;72.87;;
6850;SDS011;3464;42.728;23.296;2023-12-20T13:59:59;190.33;;;78.17;;
6850;SDS011;3464;42.728;23.296;2023-12-20T14:02:26;198.57;;;75.17;;
6850;SDS011;3464;42.728;23.296;2023-12-20T14:04:53;194.90;;;76.10;;
6850;SDS011;3464;42.728;23.296;2023-12-20T14:07:19;167.87;;;73.23;;
6850;SDS011;3464;42.728;23.296;2023-12-20T14:09:46;183.43;;;75.30;;
6850;SDS011;3464;42.728;23.296;2023-12-20T14:12:12;186.17;;;72.17;;
6850;SDS011;3464;42.728;23.296;2023-12-20T14:14:39;168.80;;;72.43;;
6850;SDS011;3464;42.728;23.296;2023-12-20T14:17:05;182.07;;;77.03;;
6850;SDS011;3464;42.728;23.296;2023-12-20T14:19:32;182.13;;;73.80;;
6850;SDS011;3464;42.728;23.296;2023-12-20T14:21:58;202.83;;;83.23;;
6850;SDS011;3464;42.728;23.296;2023-12-20T14:24:25;243.13;;;84.10;;
6850;SDS011;3464;42.728;23.296;2023-12-20T14:26:52;194.13;;;85.70;;
6850;SDS011;3464;42.728;23.296;2023-12-20T14:29:18;194.20;;;86.37;;
6850;SDS011;3464;42.728;23.296;2023-12-20T14:31:46;193.50;;;79.00;;
6850;SDS011;3464;42.728;23.296;2023-12-20T14:34:12;180.97;;;73.50;;